sensor_id;sensor_type;location;lat;lon;timestamp;pressure;altitude;pressure_sealevel;temperature;humidity
818;BME280;391;51.052;6.954;2023-06-14T00:00:28;100651.44;;;21.26;40.06
818;BME280;391;51.052;6.954;2023-06-14T00:02:33;100650.25;;;21.44;39.89
818;BME280;391;51.052;6.954;2023-06-14T00:04:37;100648.47;;;21.44;40.23
818;BME280;391;51.052;6.954;2023-06-14T00:06:45;100643.25;;;21.40;40.36
818;BME280;391;51.052;6.954;2023-06-14T00:08:49;100594.41;;;20.96;40.79
818;BME280;391;51.052;6.954;2023-06-14T00:10:53;100657.47;;;21.36;39.46
818;BME280;391;51.052;6.954;2023-06-14T00:12:57;100648.66;;;21.34;40.74
818;BME280;391;51.052;6.954;2023-06-14T00:15:03;100650.75;;;21.15;40.69
818;BME280;391;51.052;6.954;2023-06-14T00:17:06;100648.03;;;21.17;40.06
818;BME280;391;51.052;6.954;2023-06-14T00:19:11;100656.66;;;21.31;39.88
818;BME280;391;51.052;6.954;2023-06-14T00:21:14;100663.91;;;21.21;40.29
818;BME280;391;51.052;6.954;2023-06-14T00:23:19;100667.03;;;20.86;41.44
818;BME280;391;51.052;6.954;2023-06-14T00:25:23;100665.97;;;20.98;40.68
818;BME280;391;51.052;6.954;2023-06-14T00:27:30;100674.06;;;20.89;40.85
818;BME280;391;51.052;6.954;2023-06-14T00:29:34;100667.31;;;20.65;41.52
818;BME280;391;51.052;6.954;2023-06-14T00:31:38;100668.03;;;20.78;41.70
818;BME280;391;51.052;6.954;2023-06-14T00:33:42;100679.88;;;20.51;42.40
818;BME280;391;51.052;6.954;2023-06-14T00:35:47;100668.38;;;20.52;42.35
818;BME280;391;51.052;6.954;2023-06-14T00:37:50;100680.53;;;20.70;42.38
818;BME280;391;51.052;6.954;2023-06-14T00:39:55;100683.34;;;20.57;42.75
818;BME280;391;51.052;6.954;2023-06-14T00:41:58;100680.09;;;20.34;43.45
818;BME280;391;51.052;6.954;2023-06-14T00:44:02;100680.25;;;20.18;44.30
818;BME280;391;51.052;6.954;2023-06-14T00:46:05;100679.59;;;19.96;44.74
818;BME280;391;51.052;6.954;2023-06-14T00:48:10;100689.06;;;20.17;44.17
818;BME280;391;51.052;6.954;2023-06-14T00:50:14;100685.16;;;19.70;45.24
818;BME280;391;51.052;6.954;2023-06-14T00:52:18;100689.41;;;19.86;45.02
818;BME280;391;51.052;6.954;2023-06-14T00:54:22;100684.31;;;19.64;45.25
818;BME280;391;51.052;6.954;2023-06-14T00:56:27;100686.00;;;19.74;45.03
818;BME280;391;51.052;6.954;2023-06-14T00:58:32;100695.09;;;20.34;43.98
818;BME280;391;51.052;6.954;2023-06-14T01:00:35;100687.53;;;19.94;44.00
818;BME280;391;51.052;6.954;2023-06-14T01:02:39;100695.31;;;20.11;44.00
818;BME280;391;51.052;6.954;2023-06-14T01:04:46;100690.94;;;20.07;44.58
818;BME280;391;51.052;6.954;2023-06-14T01:06:57;100686.66;;;19.97;44.74
818;BME280;391;51.052;6.954;2023-06-14T01:09:10;100656.06;;;19.70;44.70
818;BME280;391;51.052;6.954;2023-06-14T01:11:22;100689.94;;;20.17;44.40
818;BME280;391;51.052;6.954;2023-06-14T01:13:34;100686.88;;;19.73;45.71
818;BME280;391;51.052;6.954;2023-06-14T01:15:43;100694.59;;;19.95;46.05
818;BME280;391;51.052;6.954;2023-06-14T01:17:49;100677.84;;;19.95;45.49
818;BME280;391;51.052;6.954;2023-06-14T01:19:54;100693.75;;;19.92;45.84
818;BME280;391;51.052;6.954;2023-06-14T01:22:00;100695.66;;;19.81;46.25
818;BME280;391;51.052;6.954;2023-06-14T01:24:06;100694.56;;;20.00;45.83
818;BME280;391;51.052;6.954;2023-06-14T01:26:09;100692.03;;;19.88;45.63
818;BME280;391;51.052;6.954;2023-06-14T01:28:15;100688.75;;;19.65;46.79
818;BME280;391;51.052;6.954;2023-06-14T01:30:20;100689.69;;;19.59;47.01
818;BME280;391;51.052;6.954;2023-06-14T01:32:25;100686.97;;;19.64;46.58
818;BME280;391;51.052;6.954;2023-06-14T01:34:30;100682.69;;;19.47;47.12
818;BME280;391;51.052;6.954;2023-06-14T01:36:35;100679.34;;;19.23;47.27
818;BME280;391;51.052;6.954;2023-06-14T01:38:40;100682.66;;;19.55;46.51
818;BME280;391;51.052;6.954;2023-06-14T01:40:47;100691.56;;;19.39;47.37
818;BME280;391;51.052;6.954;2023-06-14T01:42:52;100695.31;;;19.11;48.60
818;BME280;391;51.052;6.954;2023-06-14T01:44:56;100689.09;;;19.16;48.29
818;BME280;391;51.052;6.954;2023-06-14T01:47:00;100693.31;;;19.38;48.15
818;BME280;391;51.052;6.954;2023-06-14T01:49:04;100699.69;;;19.12;48.71
818;BME280;391;51.052;6.954;2023-06-14T01:51:08;100693.56;;;19.05;49.07
818;BME280;391;51.052;6.954;2023-06-14T01:53:11;100690.78;;;19.26;48.84
818;BME280;391;51.052;6.954;2023-06-14T01:55:15;100695.94;;;19.49;48.40
818;BME280;391;51.052;6.954;2023-06-14T01:57:22;100696.13;;;19.16;48.58
818;BME280;391;51.052;6.954;2023-06-14T01:59:25;100698.00;;;18.98;49.52
818;BME280;391;51.052;6.954;2023-06-14T02:01:29;100691.91;;;18.83;49.98
818;BME280;391;51.052;6.954;2023-06-14T02:03:33;100697.91;;;19.17;49.51
818;BME280;391;51.052;6.954;2023-06-14T02:05:36;100698.75;;;19.19;48.60
818;BME280;391;51.052;6.954;2023-06-14T02:07:41;100686.47;;;19.09;49.82
818;BME280;391;51.052;6.954;2023-06-14T02:09:44;100690.97;;;18.97;49.61
818;BME280;391;51.052;6.954;2023-06-14T02:11:48;100691.88;;;18.93;50.06
818;BME280;391;51.052;6.954;2023-06-14T02:13:52;100683.91;;;19.01;49.82
818;BME280;391;51.052;6.954;2023-06-14T02:15:57;100690.06;;;18.98;50.28
818;BME280;391;51.052;6.954;2023-06-14T02:18:03;100692.66;;;19.09;50.22
818;BME280;391;51.052;6.954;2023-06-14T02:20:10;100694.41;;;19.10;50.14
818;BME280;391;51.052;6.954;2023-06-14T02:22:15;100702.31;;;19.12;50.03
818;BME280;391;51.052;6.954;2023-06-14T02:24:18;100690.97;;;18.96;50.54
818;BME280;391;51.052;6.954;2023-06-14T02:26:23;100701.53;;;19.00;50.24
818;BME280;391;51.052;6.954;2023-06-14T02:28:26;100700.63;;;19.05;50.46
818;BME280;391;51.052;6.954;2023-06-14T02:30:31;100699.94;;;18.72;50.91
818;BME280;391;51.052;6.954;2023-06-14T02:32:34;100697.25;;;18.78;51.13
818;BME280;391;51.052;6.954;2023-06-14T02:34:39;100699.06;;;18.64;51.65
818;BME280;391;51.052;6.954;2023-06-14T02:36:43;100712.19;;;18.85;51.32
818;BME280;391;51.052;6.954;2023-06-14T02:38:47;100712.22;;;18.75;51.99
818;BME280;391;51.052;6.954;2023-06-14T02:40:50;100714.78;;;18.90;51.79
818;BME280;391;51.052;6.954;2023-06-14T02:42:54;100706.03;;;18.85;52.04
818;BME280;391;51.052;6.954;2023-06-14T02:44:57;100717.50;;;18.75;52.18
818;BME280;391;51.052;6.954;2023-06-14T02:47:05;100709.59;;;18.73;51.97
818;BME280;391;51.052;6.954;2023-06-14T02:49:09;100714.03;;;18.61;52.62
818;BME280;391;51.052;6.954;2023-06-14T02:51:12;100700.88;;;18.45;52.93
818;BME280;391;51.052;6.954;2023-06-14T02:53:16;100710.53;;;18.48;53.08
818;BME280;391;51.052;6.954;2023-06-14T02:55:19;100711.44;;;18.38;53.27
818;BME280;391;51.052;6.954;2023-06-14T02:57:23;100710.59;;;18.28;53.78
818;BME280;391;51.052;6.954;2023-06-14T02:59:27;100708.88;;;18.23;53.65
818;BME280;391;51.052;6.954;2023-06-14T03:01:31;100712.34;;;18.51;53.55
818;BME280;391;51.052;6.954;2023-06-14T03:03:42;100718.47;;;18.51;53.18
818;BME280;391;51.052;6.954;2023-06-14T03:05:47;100708.88;;;18.30;53.82
818;BME280;391;51.052;6.954;2023-06-14T03:07:55;100718.56;;;18.18;54.02
818;BME280;391;51.052;6.954;2023-06-14T03:09:59;100729.91;;;18.59;52.79
818;BME280;391;51.052;6.954;2023-06-14T03:12:06;100736.97;;;18.59;52.45
818;BME280;391;51.052;6.954;2023-06-14T03:14:11;100726.41;;;18.42;52.30
818;BME280;391;51.052;6.954;2023-06-14T03:16:17;100718.59;;;18.10;52.99
818;BME280;391;51.052;6.954;2023-06-14T03:18:22;100725.53;;;18.41;51.44
818;BME280;391;51.052;6.954;2023-06-14T03:20:32;100724.78;;;17.95;52.96
818;BME280;391;51.052;6.954;2023-06-14T03:22:35;100730.91;;;18.01;52.37
818;BME280;391;51.052;6.954;2023-06-14T03:24:40;100739.72;;;17.92;52.66
818;BME280;391;51.052;6.954;2023-06-14T03:26:46;100738.88;;;17.70;52.71
818;BME280;391;51.052;6.954;2023-06-14T03:28:50;100739.75;;;17.60;53.18
818;BME280;391;51.052;6.954;2023-06-14T03:30:54;100740.56;;;17.41;53.96
818;BME280;391;51.052;6.954;2023-06-14T03:32:59;100744.06;;;17.46;54.47
818;BME280;391;51.052;6.954;2023-06-14T03:35:05;100736.22;;;17.61;54.29
818;BME280;391;51.052;6.954;2023-06-14T03:37:10;100742.38;;;17.83;53.67
818;BME280;391;51.052;6.954;2023-06-14T03:39:14;100747.66;;;17.72;53.86
818;BME280;391;51.052;6.954;2023-06-14T03:41:17;100741.44;;;17.52;54.49
818;BME280;391;51.052;6.954;2023-06-14T03:43:21;100741.50;;;17.66;54.33
818;BME280;391;51.052;6.954;2023-06-14T03:45:25;100745.88;;;17.65;54.78
818;BME280;391;51.052;6.954;2023-06-14T03:47:30;100747.59;;;17.37;55.75
818;BME280;391;51.052;6.954;2023-06-14T03:49:33;100745.84;;;17.53;55.88
818;BME280;391;51.052;6.954;2023-06-14T03:51:37;100751.16;;;17.91;54.78
818;BME280;391;51.052;6.954;2023-06-14T03:53:43;100742.38;;;17.80;54.83
818;BME280;391;51.052;6.954;2023-06-14T03:56:06;100755.53;;;17.54;55.72
818;BME280;391;51.052;6.954;2023-06-14T03:58:17;100754.66;;;17.78;54.95
818;BME280;391;51.052;6.954;2023-06-14T04:00:21;100759.91;;;17.38;56.47
818;BME280;391;51.052;6.954;2023-06-14T04:02:25;100749.38;;;17.54;55.79
818;BME280;391;51.052;6.954;2023-06-14T04:04:31;100760.84;;;17.86;55.20
818;BME280;391;51.052;6.954;2023-06-14T04:06:35;100748.53;;;17.73;55.52
818;BME280;391;51.052;6.954;2023-06-14T04:08:40;100750.28;;;17.63;55.69
818;BME280;391;51.052;6.954;2023-06-14T04:10:45;100765.19;;;17.51;56.73
818;BME280;391;51.052;6.954;2023-06-14T04:12:49;100755.50;;;17.46;56.63
818;BME280;391;51.052;6.954;2023-06-14T04:14:59;100767.81;;;17.48;56.73
818;BME280;391;51.052;6.954;2023-06-14T04:17:28;100778.44;;;17.70;56.14
818;BME280;391;51.052;6.954;2023-06-14T04:19:32;100771.28;;;17.36;57.31
818;BME280;391;51.052;6.954;2023-06-14T04:21:37;100780.19;;;17.67;56.45
818;BME280;391;51.052;6.954;2023-06-14T04:23:40;100777.53;;;17.59;57.04
818;BME280;391;51.052;6.954;2023-06-14T04:25:49;100772.25;;;17.91;56.14
818;BME280;391;51.052;6.954;2023-06-14T04:27:53;100767.88;;;17.66;56.42
818;BME280;391;51.052;6.954;2023-06-14T04:29:57;100783.66;;;17.55;57.52
818;BME280;391;51.052;6.954;2023-06-14T04:32:08;100782.72;;;17.33;58.04
818;BME280;391;51.052;6.954;2023-06-14T04:34:13;100781.91;;;17.56;57.93
818;BME280;391;51.052;6.954;2023-06-14T04:36:24;100781.94;;;17.60;57.88
818;BME280;391;51.052;6.954;2023-06-14T04:38:30;100789.84;;;17.63;58.24
818;BME280;391;51.052;6.954;2023-06-14T04:40:37;100801.28;;;17.92;57.52
818;BME280;391;51.052;6.954;2023-06-14T04:42:47;100796.00;;;17.76;57.71
818;BME280;391;51.052;6.954;2023-06-14T04:44:52;100795.09;;;18.24;59.40
818;BME280;391;51.052;6.954;2023-06-14T04:46:58;100807.22;;;18.99;55.48
818;BME280;391;51.052;6.954;2023-06-14T04:49:02;100808.09;;;19.06;56.16
818;BME280;391;51.052;6.954;2023-06-14T04:51:08;100815.13;;;19.05;54.95
818;BME280;391;51.052;6.954;2023-06-14T04:53:11;100808.28;;;18.34;56.89
818;BME280;391;51.052;6.954;2023-06-14T04:55:15;100821.50;;;17.98;57.93
818;BME280;391;51.052;6.954;2023-06-14T04:57:19;100819.69;;;18.65;57.07
818;BME280;391;51.052;6.954;2023-06-14T04:59:26;100826.69;;;18.89;55.63
818;BME280;391;51.052;6.954;2023-06-14T05:01:30;100840.63;;;19.23;53.58
818;BME280;391;51.052;6.954;2023-06-14T05:03:34;100831.66;;;19.56;53.70
818;BME280;391;51.052;6.954;2023-06-14T05:05:37;100838.72;;;19.50;53.26
818;BME280;391;51.052;6.954;2023-06-14T05:07:41;100842.13;;;19.69;51.86
818;BME280;391;51.052;6.954;2023-06-14T05:09:45;100836.94;;;19.54;51.48
818;BME280;391;51.052;6.954;2023-06-14T05:11:48;100832.34;;;19.79;49.86
818;BME280;391;51.052;6.954;2023-06-14T05:13:52;100839.16;;;20.13;49.67
818;BME280;391;51.052;6.954;2023-06-14T05:15:58;100852.34;;;20.18;48.79
818;BME280;391;51.052;6.954;2023-06-14T05:18:02;100841.50;;;20.51;48.97
818;BME280;391;51.052;6.954;2023-06-14T05:20:07;100844.25;;;21.20;47.11
818;BME280;391;51.052;6.954;2023-06-14T05:22:12;100843.50;;;21.12;46.44
818;BME280;391;51.052;6.954;2023-06-14T05:24:15;100847.88;;;21.13;47.06
818;BME280;391;51.052;6.954;2023-06-14T05:26:20;100847.78;;;21.20;46.10
818;BME280;391;51.052;6.954;2023-06-14T05:28:25;100841.94;;;21.59;46.20
818;BME280;391;51.052;6.954;2023-06-14T05:30:29;100845.03;;;21.90;45.03
818;BME280;391;51.052;6.954;2023-06-14T05:32:34;100847.59;;;21.96;44.57
818;BME280;391;51.052;6.954;2023-06-14T05:34:38;100848.53;;;21.30;43.36
818;BME280;391;51.052;6.954;2023-06-14T05:36:41;100844.94;;;20.59;44.03
818;BME280;391;51.052;6.954;2023-06-14T05:38:45;100838.78;;;20.57;46.07
818;BME280;391;51.052;6.954;2023-06-14T05:40:48;100842.59;;;20.24;44.30
818;BME280;391;51.052;6.954;2023-06-14T05:42:52;100840.75;;;20.37;46.02
818;BME280;391;51.052;6.954;2023-06-14T05:44:56;100856.00;;;20.04;45.00
818;BME280;391;51.052;6.954;2023-06-14T05:46:59;100851.66;;;19.96;46.57
818;BME280;391;51.052;6.954;2023-06-14T05:49:04;100854.34;;;19.90;45.44
818;BME280;391;51.052;6.954;2023-06-14T05:51:07;100847.41;;;19.74;45.62
818;BME280;391;51.052;6.954;2023-06-14T05:53:11;100857.94;;;19.81;46.05
818;BME280;391;51.052;6.954;2023-06-14T05:55:16;100857.88;;;19.89;44.76
818;BME280;391;51.052;6.954;2023-06-14T05:57:20;100865.78;;;19.96;46.18
818;BME280;391;51.052;6.954;2023-06-14T05:59:23;100873.53;;;20.18;44.45
818;BME280;391;51.052;6.954;2023-06-14T06:01:27;100864.81;;;20.06;45.66
818;BME280;391;51.052;6.954;2023-06-14T06:03:30;100864.66;;;20.25;44.30
818;BME280;391;51.052;6.954;2023-06-14T06:05:36;100849.16;;;19.76;44.21
818;BME280;391;51.052;6.954;2023-06-14T06:07:39;100870.22;;;19.90;44.72
818;BME280;391;51.052;6.954;2023-06-14T06:09:43;100872.84;;;19.93;44.44
818;BME280;391;51.052;6.954;2023-06-14T06:11:46;100874.38;;;20.24;44.53
818;BME280;391;51.052;6.954;2023-06-14T06:13:55;100877.06;;;20.17;43.78
818;BME280;391;51.052;6.954;2023-06-14T06:15:59;100879.66;;;20.27;44.13
818;BME280;391;51.052;6.954;2023-06-14T06:18:02;100878.78;;;20.25;43.78
818;BME280;391;51.052;6.954;2023-06-14T06:20:06;100883.06;;;20.43;44.60
818;BME280;391;51.052;6.954;2023-06-14T06:22:11;100871.56;;;20.44;43.66
818;BME280;391;51.052;6.954;2023-06-14T06:24:15;100872.59;;;20.32;43.32
818;BME280;391;51.052;6.954;2023-06-14T06:26:18;100886.69;;;20.30;42.65
818;BME280;391;51.052;6.954;2023-06-14T06:28:22;100874.41;;;20.20;43.27
818;BME280;391;51.052;6.954;2023-06-14T06:30:25;100880.59;;;20.17;42.54
818;BME280;391;51.052;6.954;2023-06-14T06:32:29;100881.44;;;20.27;42.29
818;BME280;391;51.052;6.954;2023-06-14T06:34:32;100882.97;;;20.52;42.52
818;BME280;391;51.052;6.954;2023-06-14T06:36:36;100877.72;;;20.47;43.36
818;BME280;391;51.052;6.954;2023-06-14T06:38:40;100890.88;;;20.56;42.64
818;BME280;391;51.052;6.954;2023-06-14T06:40:44;100880.19;;;20.66;42.75
818;BME280;391;51.052;6.954;2023-06-14T06:42:47;100882.88;;;20.63;43.66
818;BME280;391;51.052;6.954;2023-06-14T06:44:53;100888.06;;;20.72;41.48
818;BME280;391;51.052;6.954;2023-06-14T06:46:57;100887.28;;;20.62;42.41
818;BME280;391;51.052;6.954;2023-06-14T06:49:01;100893.53;;;20.56;42.65
818;BME280;391;51.052;6.954;2023-06-14T06:51:04;100895.22;;;20.65;42.46
818;BME280;391;51.052;6.954;2023-06-14T06:53:08;100897.94;;;20.57;42.64
818;BME280;391;51.052;6.954;2023-06-14T06:55:13;100904.13;;;20.58;42.12
818;BME280;391;51.052;6.954;2023-06-14T06:57:17;100902.38;;;20.57;42.58
818;BME280;391;51.052;6.954;2023-06-14T06:59:21;100880.19;;;20.66;43.83
818;BME280;391;51.052;6.954;2023-06-14T07:01:25;100905.59;;;20.89;42.13
818;BME280;391;51.052;6.954;2023-06-14T07:03:31;100906.25;;;21.06;41.28
818;BME280;391;51.052;6.954;2023-06-14T07:05:34;100907.22;;;21.02;41.08
818;BME280;391;51.052;6.954;2023-06-14T07:07:38;100914.34;;;20.96;41.30
818;BME280;391;51.052;6.954;2023-06-14T07:09:41;100901.81;;;21.10;40.83
818;BME280;391;51.052;6.954;2023-06-14T07:11:46;100916.72;;;21.23;41.42
818;BME280;391;51.052;6.954;2023-06-14T07:13:50;100913.00;;;21.36;42.54
818;BME280;391;51.052;6.954;2023-06-14T07:15:54;100911.25;;;21.37;40.19
818;BME280;391;51.052;6.954;2023-06-14T07:18:00;100909.22;;;21.55;39.62
818;BME280;391;51.052;6.954;2023-06-14T07:20:05;100916.16;;;21.66;39.03
818;BME280;391;51.052;6.954;2023-06-14T07:22:14;100914.56;;;21.52;38.49
818;BME280;391;51.052;6.954;2023-06-14T07:24:17;100906.63;;;21.51;38.53
818;BME280;391;51.052;6.954;2023-06-14T07:26:23;100910.88;;;21.66;39.06
818;BME280;391;51.052;6.954;2023-06-14T07:28:28;100915.00;;;21.85;38.13
818;BME280;391;51.052;6.954;2023-06-14T07:30:31;100910.53;;;21.88;37.33
818;BME280;391;51.052;6.954;2023-06-14T07:32:35;100909.84;;;21.76;37.05
818;BME280;391;51.052;6.954;2023-06-14T07:34:39;100912.84;;;22.12;36.06
818;BME280;391;51.052;6.954;2023-06-14T07:36:43;100916.44;;;22.08;36.27
818;BME280;391;51.052;6.954;2023-06-14T07:38:47;100909.50;;;22.01;34.20
818;BME280;391;51.052;6.954;2023-06-14T07:40:50;100913.19;;;21.88;35.41
818;BME280;391;51.052;6.954;2023-06-14T07:42:54;100912.31;;;21.89;34.35
818;BME280;391;51.052;6.954;2023-06-14T07:44:58;100913.19;;;21.88;36.39
818;BME280;391;51.052;6.954;2023-06-14T07:47:02;100909.56;;;21.97;34.74
818;BME280;391;51.052;6.954;2023-06-14T07:49:06;100913.03;;;22.00;34.25
818;BME280;391;51.052;6.954;2023-06-14T07:51:10;100919.16;;;22.05;33.89
818;BME280;391;51.052;6.954;2023-06-14T07:53:13;100917.13;;;22.21;34.18
818;BME280;391;51.052;6.954;2023-06-14T07:55:17;100929.56;;;22.21;33.88
818;BME280;391;51.052;6.954;2023-06-14T07:57:21;100915.19;;;22.31;33.85
818;BME280;391;51.052;6.954;2023-06-14T07:59:24;100928.31;;;22.43;33.29
818;BME280;391;51.052;6.954;2023-06-14T08:01:29;100921.97;;;22.50;32.26
818;BME280;391;51.052;6.954;2023-06-14T08:03:32;100925.59;;;22.46;31.13
818;BME280;391;51.052;6.954;2023-06-14T08:05:36;100920.47;;;22.34;31.87
818;BME280;391;51.052;6.954;2023-06-14T08:07:40;100923.78;;;22.48;31.45
818;BME280;391;51.052;6.954;2023-06-14T08:09:43;100839.47;;;22.07;31.28
818;BME280;391;51.052;6.954;2023-06-14T08:11:47;100919.94;;;22.65;30.92
818;BME280;391;51.052;6.954;2023-06-14T08:13:50;100919.97;;;22.62;31.07
818;BME280;391;51.052;6.954;2023-06-14T08:15:54;100918.84;;;22.79;31.14
818;BME280;391;51.052;6.954;2023-06-14T08:18:02;100911.94;;;22.69;30.59
818;BME280;391;51.052;6.954;2023-06-14T08:20:06;100912.84;;;22.67;31.13
818;BME280;391;51.052;6.954;2023-06-14T08:22:10;100920.59;;;22.80;30.85
818;BME280;391;51.052;6.954;2023-06-14T08:24:14;100918.88;;;22.77;32.20
818;BME280;391;51.052;6.954;2023-06-14T08:26:18;100918.78;;;22.82;31.48
818;BME280;391;51.052;6.954;2023-06-14T08:28:24;100916.16;;;22.80;31.68
818;BME280;391;51.052;6.954;2023-06-14T08:30:27;100917.75;;;22.89;31.12
818;BME280;391;51.052;6.954;2023-06-14T08:32:30;100917.50;;;23.02;31.82
818;BME280;391;51.052;6.954;2023-06-14T08:34:35;100914.66;;;23.13;33.62
818;BME280;391;51.052;6.954;2023-06-14T08:36:39;100919.28;;;23.02;30.24
818;BME280;391;51.052;6.954;2023-06-14T08:38:43;100911.88;;;23.19;31.67
818;BME280;391;51.052;6.954;2023-06-14T08:40:48;100924.53;;;23.06;30.36
818;BME280;391;51.052;6.954;2023-06-14T08:42:54;100919.41;;;22.97;30.56
818;BME280;391;51.052;6.954;2023-06-14T08:44:58;100912.25;;;22.98;30.82
818;BME280;391;51.052;6.954;2023-06-14T08:47:02;100920.75;;;23.18;31.12
818;BME280;391;51.052;6.954;2023-06-14T08:49:06;100923.34;;;23.21;31.22
818;BME280;391;51.052;6.954;2023-06-14T08:51:13;100922.94;;;23.42;31.00
818;BME280;391;51.052;6.954;2023-06-14T08:53:18;100922.38;;;23.25;31.86
818;BME280;391;51.052;6.954;2023-06-14T08:55:23;100902.59;;;23.38;30.88
818;BME280;391;51.052;6.954;2023-06-14T08:57:29;100911.75;;;23.25;31.46
818;BME280;391;51.052;6.954;2023-06-14T08:59:33;100917.88;;;23.29;31.26
818;BME280;391;51.052;6.954;2023-06-14T09:01:41;100912.56;;;23.27;31.18
818;BME280;391;51.052;6.954;2023-06-14T09:04:05;100906.22;;;23.34;31.38
818;BME280;391;51.052;6.954;2023-06-14T09:06:09;100911.38;;;23.43;31.07
818;BME280;391;51.052;6.954;2023-06-14T09:08:16;100911.59;;;23.31;31.25
818;BME280;391;51.052;6.954;2023-06-14T09:10:21;100877.16;;;23.24;31.61
818;BME280;391;51.052;6.954;2023-06-14T09:12:26;100908.63;;;23.48;31.46
818;BME280;391;51.052;6.954;2023-06-14T09:14:30;100913.81;;;23.54;31.05
818;BME280;391;51.052;6.954;2023-06-14T09:16:33;100908.94;;;23.31;31.48
818;BME280;391;51.052;6.954;2023-06-14T09:18:38;100911.19;;;23.52;32.16
818;BME280;391;51.052;6.954;2023-06-14T09:20:43;100907.06;;;23.78;32.81
818;BME280;391;51.052;6.954;2023-06-14T09:22:49;100910.06;;;23.64;31.93
818;BME280;391;51.052;6.954;2023-06-14T09:24:55;100920.44;;;23.76;31.75
818;BME280;391;51.052;6.954;2023-06-14T09:26:58;100916.38;;;23.98;32.43
818;BME280;391;51.052;6.954;2023-06-14T09:29:05;100915.19;;;24.10;33.19
818;BME280;391;51.052;6.954;2023-06-14T09:31:08;100915.94;;;24.18;32.75
818;BME280;391;51.052;6.954;2023-06-14T09:33:16;100917.13;;;24.03;31.67
818;BME280;391;51.052;6.954;2023-06-14T09:35:20;100918.25;;;23.93;32.27
818;BME280;391;51.052;6.954;2023-06-14T09:37:27;100920.34;;;24.19;32.32
818;BME280;391;51.052;6.954;2023-06-14T09:39:32;100917.88;;;24.11;32.14
818;BME280;391;51.052;6.954;2023-06-14T09:41:37;100918.59;;;24.18;32.69
818;BME280;391;51.052;6.954;2023-06-14T09:43:42;100915.22;;;24.11;32.65
818;BME280;391;51.052;6.954;2023-06-14T09:45:47;100894.34;;;23.90;32.59
818;BME280;391;51.052;6.954;2023-06-14T09:47:51;100920.56;;;24.08;32.49
818;BME280;391;51.052;6.954;2023-06-14T09:50:08;100920.09;;;24.30;32.75
818;BME280;391;51.052;6.954;2023-06-14T09:52:14;100914.81;;;24.28;33.37
818;BME280;391;51.052;6.954;2023-06-14T09:54:22;100896.25;;;24.23;33.35
818;BME280;391;51.052;6.954;2023-06-14T09:56:28;100929.34;;;24.50;33.26
818;BME280;391;51.052;6.954;2023-06-14T09:58:35;100924.13;;;24.09;33.81
818;BME280;391;51.052;6.954;2023-06-14T10:00:41;100926.16;;;24.36;33.47
818;BME280;391;51.052;6.954;2023-06-14T10:02:49;100922.09;;;24.20;33.36
818;BME280;391;51.052;6.954;2023-06-14T10:05:03;100924.34;;;24.72;33.67
818;BME280;391;51.052;6.954;2023-06-14T10:07:09;100923.72;;;24.27;33.19
818;BME280;391;51.052;6.954;2023-06-14T10:09:12;100898.75;;;23.93;34.75
818;BME280;391;51.052;6.954;2023-06-14T10:11:17;100924.84;;;24.15;34.79
818;BME280;391;51.052;6.954;2023-06-14T10:13:20;100924.22;;;24.41;34.64
818;BME280;391;51.052;6.954;2023-06-14T10:15:29;100919.50;;;24.52;34.59
818;BME280;391;51.052;6.954;2023-06-14T10:17:39;100914.97;;;24.56;34.62
818;BME280;391;51.052;6.954;2023-06-14T10:19:48;100917.88;;;24.82;34.22
818;BME280;391;51.052;6.954;2023-06-14T10:21:57;100914.25;;;24.85;34.34
818;BME280;391;51.052;6.954;2023-06-14T10:24:05;100910.94;;;24.75;34.42
818;BME280;391;51.052;6.954;2023-06-14T10:26:18;100876.16;;;24.44;35.09
818;BME280;391;51.052;6.954;2023-06-14T10:28:23;100912.97;;;24.65;34.76
818;BME280;391;51.052;6.954;2023-06-14T10:30:30;100913.22;;;24.55;35.01
818;BME280;391;51.052;6.954;2023-06-14T10:32:33;100915.16;;;24.50;34.99
818;BME280;391;51.052;6.954;2023-06-14T10:34:38;100917.09;;;24.43;35.61
818;BME280;391;51.052;6.954;2023-06-14T10:36:42;100902.16;;;24.70;35.10
818;BME280;391;51.052;6.954;2023-06-14T10:38:46;100902.16;;;24.70;35.67
818;BME280;391;51.052;6.954;2023-06-14T10:40:52;100900.41;;;24.69;34.99
818;BME280;391;51.052;6.954;2023-06-14T10:42:56;100906.63;;;25.03;34.72
818;BME280;391;51.052;6.954;2023-06-14T10:45:00;100906.56;;;25.05;35.30
818;BME280;391;51.052;6.954;2023-06-14T10:47:08;100908.28;;;25.38;33.64
818;BME280;391;51.052;6.954;2023-06-14T10:49:16;100908.38;;;25.04;33.90
818;BME280;391;51.052;6.954;2023-06-14T10:51:21;100912.81;;;25.36;34.31
818;BME280;391;51.052;6.954;2023-06-14T10:53:24;100915.88;;;25.21;33.39
818;BME280;391;51.052;6.954;2023-06-14T10:55:34;100899.25;;;25.11;33.49
818;BME280;391;51.052;6.954;2023-06-14T10:57:40;100899.59;;;24.99;34.79
818;BME280;391;51.052;6.954;2023-06-14T10:59:47;100906.19;;;24.86;35.25
818;BME280;391;51.052;6.954;2023-06-14T11:01:58;100910.59;;;24.89;35.54
818;BME280;391;51.052;6.954;2023-06-14T11:04:10;100913.72;;;25.35;34.64
818;BME280;391;51.052;6.954;2023-06-14T11:06:15;100898.84;;;25.57;34.18
818;BME280;391;51.052;6.954;2023-06-14T11:08:27;100895.63;;;25.45;34.85
818;BME280;391;51.052;6.954;2023-06-14T11:10:38;100912.06;;;25.62;33.84
818;BME280;391;51.052;6.954;2023-06-14T11:12:45;100904.75;;;25.68;32.16
818;BME280;391;51.052;6.954;2023-06-14T11:14:50;100902.72;;;25.46;32.83
818;BME280;391;51.052;6.954;2023-06-14T11:16:53;100907.88;;;25.21;33.37
818;BME280;391;51.052;6.954;2023-06-14T11:18:57;100894.72;;;25.15;33.99
818;BME280;391;51.052;6.954;2023-06-14T11:21:02;100884.09;;;25.73;32.64
818;BME280;391;51.052;6.954;2023-06-14T11:23:06;100892.19;;;25.70;31.96
818;BME280;391;51.052;6.954;2023-06-14T11:25:09;100882.59;;;25.93;32.42
818;BME280;391;51.052;6.954;2023-06-14T11:27:13;100894.16;;;25.93;31.55
818;BME280;391;51.052;6.954;2023-06-14T11:29:16;100897.16;;;25.83;31.91